createdAt,value
2016-10-28T00:00:29.765Z,8.26
2016-10-28T00:01:38.467Z,8.24
2016-10-28T00:02:47.170Z,8.2
2016-10-28T00:03:55.867Z,8.21
2016-10-28T00:05:04.570Z,8.14
2016-10-28T00:06:13.274Z,7.93
2016-10-28T00:07:21.980Z,7.85
2016-10-28T00:08:30.688Z,7.74
2016-10-28T00:09:39.382Z,7.59
2016-10-28T00:10:48.123Z,7.48
2016-10-28T00:11:56.821Z,7.48
2016-10-28T00:13:05.528Z,7.46
2016-10-28T00:14:14.233Z,7.4
2016-10-28T00:15:22.937Z,7.31
2016-10-28T00:16:31.642Z,7.31
2016-10-28T00:17:40.380Z,7.28
2016-10-28T00:18:49.076Z,7.23
2016-10-28T00:19:57.780Z,7.23
2016-10-28T00:21:06.515Z,7.22
2016-10-28T00:22:15.220Z,7.21
2016-10-28T00:23:23.919Z,7.1
2016-10-28T00:24:32.624Z,7.05
2016-10-28T00:25:41.330Z,7.05
2016-10-28T00:26:50.030Z,6.87
2016-10-28T00:27:58.738Z,6.9
2016-10-28T00:29:07.469Z,6.77
2016-10-28T00:30:16.174Z,6.78
2016-10-28T00:31:24.910Z,6.68
2016-10-28T00:32:33.606Z,6.62
2016-10-28T00:33:42.302Z,6.62
2016-10-28T00:34:51.031Z,6.57
2016-10-28T00:35:59.734Z,6.52
2016-10-28T00:37:08.428Z,6.49
2016-10-28T00:38:17.168Z,6.59
2016-10-28T00:39:25.872Z,6.65
2016-10-28T00:40:34.576Z,6.7
2016-10-28T00:41:43.313Z,6.83
2016-10-28T00:42:52.011Z,6.95
2016-10-28T00:44:00.711Z,6.92
2016-10-28T00:45:09.416Z,6.95
2016-10-28T00:46:18.115Z,7.05
2016-10-28T00:47:26.817Z,7.03
2016-10-28T00:48:35.511Z,7.03
2016-10-28T00:49:44.217Z,7.04
2016-10-28T00:50:52.909Z,7.03
2016-10-28T00:52:01.606Z,7.05
2016-10-28T00:53:10.310Z,6.97
2016-10-28T00:54:19.006Z,6.89
2016-10-28T00:55:27.699Z,6.9
2016-10-28T00:56:36.395Z,6.93
2016-10-28T00:57:45.095Z,6.89
2016-10-28T00:58:53.792Z,6.82
2016-10-28T01:00:02.510Z,6.83
2016-10-28T01:01:11.211Z,6.74
2016-10-28T01:02:19.911Z,6.77
2016-10-28T01:03:28.614Z,6.71
2016-10-28T01:04:37.313Z,6.67
2016-10-28T01:05:46.020Z,6.6
2016-10-28T01:06:54.721Z,6.56
2016-10-28T01:08:03.427Z,6.49
2016-10-28T01:09:12.134Z,6.43
2016-10-28T01:10:20.830Z,6.46
2016-10-28T01:11:29.532Z,6.36
2016-10-28T01:12:38.237Z,6.36
2016-10-28T01:13:46.936Z,6.22
2016-10-28T01:14:55.633Z,6.36
2016-10-28T01:16:04.341Z,6.43
2016-10-28T01:17:13.044Z,6.31
2016-10-28T01:18:21.741Z,6.35
2016-10-28T01:19:30.439Z,6.38
2016-10-28T01:20:39.140Z,6.39
2016-10-28T01:21:47.891Z,6.47
2016-10-28T01:22:56.592Z,6.44
2016-10-28T01:24:05.289Z,6.46
2016-10-28T01:25:13.997Z,6.46
2016-10-28T01:26:22.699Z,6.35
2016-10-28T01:27:31.402Z,6.34
2016-10-28T01:28:40.109Z,6.26
2016-10-28T01:29:48.844Z,6.22
2016-10-28T01:30:57.540Z,6.1
2016-10-28T01:32:06.245Z,5.97
2016-10-28T01:33:14.954Z,5.94
2016-10-28T01:34:23.668Z,5.94
2016-10-28T01:35:32.366Z,5.8
2016-10-28T01:36:41.080Z,5.81
2016-10-28T01:37:49.776Z,5.83
2016-10-28T01:38:58.549Z,5.81
2016-10-28T01:40:07.251Z,5.77
2016-10-28T01:41:15.959Z,5.84
2016-10-28T01:42:24.669Z,5.88
2016-10-28T01:43:33.378Z,5.9
2016-10-28T01:44:42.082Z,5.97
2016-10-28T01:45:50.786Z,5.95
2016-10-28T01:46:59.487Z,6.02
2016-10-28T01:48:08.234Z,5.95
2016-10-28T01:49:16.933Z,5.99
2016-10-28T01:50:25.636Z,6.12
2016-10-28T01:51:34.345Z,6.01
2016-10-28T01:52:43.046Z,6.06
2016-10-28T01:53:51.746Z,6.05
2016-10-28T01:55:00.445Z,6.06
2016-10-28T01:56:09.464Z,6.15
2016-10-28T01:57:18.166Z,6.06
2016-10-28T01:58:26.864Z,6.16
2016-10-28T01:59:35.580Z,6.15
2016-10-28T02:00:44.279Z,6.15
2016-10-28T02:01:52.985Z,6.12
2016-10-28T02:03:01.687Z,6.12
2016-10-28T02:04:10.390Z,6.07
2016-10-28T02:05:19.137Z,6.05
2016-10-28T02:06:27.883Z,6.07
2016-10-28T02:07:36.582Z,6.06
2016-10-28T02:08:45.274Z,5.94
2016-10-28T02:09:53.978Z,5.88
2016-10-28T02:11:02.994Z,5.91
2016-10-28T02:12:11.691Z,5.83
2016-10-28T02:13:20.384Z,5.79
2016-10-28T02:14:29.078Z,5.84
2016-10-28T02:15:37.828Z,5.88
2016-10-28T02:16:46.572Z,5.84
2016-10-28T02:17:55.273Z,5.77
2016-10-28T02:19:03.982Z,5.8
2016-10-28T02:20:12.681Z,5.74
2016-10-28T02:21:21.380Z,5.7
2016-10-28T02:22:30.092Z,5.8
2016-10-28T02:23:38.793Z,5.72
2016-10-28T02:24:47.492Z,5.69
2016-10-28T02:25:56.223Z,5.79
2016-10-28T02:27:04.966Z,5.72
2016-10-28T02:28:13.705Z,5.73
2016-10-28T02:29:22.402Z,5.67
2016-10-28T02:30:31.143Z,5.67
2016-10-28T02:31:39.843Z,5.65
2016-10-28T02:32:48.545Z,5.64
2016-10-28T02:33:57.262Z,5.69
2016-10-28T02:35:05.981Z,5.61
2016-10-28T02:36:14.681Z,5.54
2016-10-28T02:37:23.387Z,5.55
2016-10-28T02:38:32.080Z,5.55
2016-10-28T02:39:40.782Z,5.52
2016-10-28T02:40:49.521Z,5.43
2016-10-28T02:41:58.257Z,5.34
2016-10-28T02:43:06.966Z,5.34
2016-10-28T02:44:15.670Z,5.22
2016-10-28T02:45:24.368Z,5.28
2016-10-28T02:46:33.071Z,5.2
2016-10-28T02:47:41.811Z,5.01
2016-10-28T02:48:50.515Z,4.92
2016-10-28T02:49:59.221Z,4.76
2016-10-28T02:51:07.957Z,4.63
2016-10-28T02:52:16.658Z,4.52
2016-10-28T02:53:25.356Z,4.43
2016-10-28T02:54:34.062Z,4.34
2016-10-28T02:55:42.760Z,4.21
2016-10-28T02:56:51.457Z,4.25
2016-10-28T02:58:00.162Z,4.09
2016-10-28T02:59:08.865Z,4.07
2016-10-28T03:00:17.563Z,4.16
2016-10-28T03:01:26.575Z,4.2
2016-10-28T03:02:35.316Z,4.13
2016-10-28T03:03:44.019Z,4.14
2016-10-28T03:04:52.724Z,4.16
2016-10-28T03:06:01.426Z,4.12
2016-10-28T03:07:10.126Z,4.14
2016-10-28T03:08:18.824Z,4.09
2016-10-28T03:09:27.530Z,4.13
2016-10-28T03:10:36.582Z,4.12
2016-10-28T03:11:45.283Z,4.12
2016-10-28T03:12:54.020Z,4.1
2016-10-28T03:14:02.722Z,4.1
2016-10-28T03:15:11.425Z,4.13
2016-10-28T03:16:20.123Z,4.28
2016-10-28T03:17:28.820Z,4.21
2016-10-28T03:18:37.521Z,4.25
2016-10-28T03:19:46.215Z,4.34
2016-10-28T03:20:54.913Z,4.46
2016-10-28T03:22:03.620Z,4.5
2016-10-28T03:23:12.326Z,4.58
2016-10-28T03:24:21.029Z,4.68
2016-10-28T03:25:29.730Z,4.78
2016-10-28T03:26:38.468Z,4.75
2016-10-28T03:27:47.185Z,4.75
2016-10-28T03:28:55.883Z,4.95
2016-10-28T03:30:04.610Z,5.04
2016-10-28T03:31:13.355Z,5.16
2016-10-28T03:32:22.058Z,5.12
2016-10-28T03:33:30.756Z,5.15
2016-10-28T03:34:39.466Z,5.23
2016-10-28T03:35:48.161Z,5.23
2016-10-28T03:36:56.909Z,5.2
2016-10-28T03:38:05.608Z,5.12
2016-10-28T03:39:14.320Z,5.18
2016-10-28T03:40:23.026Z,5.13
2016-10-28T03:41:31.729Z,5.16
2016-10-28T03:42:40.419Z,5.13
2016-10-28T03:43:49.114Z,5.15
2016-10-28T03:44:57.815Z,5.16
2016-10-28T03:46:06.519Z,5.05
2016-10-28T03:47:15.221Z,5.05
2016-10-28T03:48:23.962Z,4.95
2016-10-28T03:49:32.666Z,5.07
2016-10-28T03:50:41.367Z,4.97
2016-10-28T03:51:50.064Z,4.83
2016-10-28T03:52:58.764Z,4.79
2016-10-28T03:54:07.460Z,4.86
2016-10-28T03:55:16.157Z,4.78
2016-10-28T03:56:24.858Z,4.89
2016-10-28T03:57:33.595Z,4.84
2016-10-28T03:58:42.294Z,4.71
2016-10-28T03:59:50.993Z,4.79
2016-10-28T04:00:59.704Z,4.68
2016-10-28T04:02:08.402Z,4.67
2016-10-28T04:03:17.097Z,4.68
2016-10-28T04:04:25.795Z,4.64
2016-10-28T04:05:34.530Z,4.66
2016-10-28T04:06:43.233Z,4.66
2016-10-28T04:07:51.936Z,4.49
2016-10-28T04:09:00.636Z,4.52
2016-10-28T04:10:09.334Z,4.52
2016-10-28T04:11:18.056Z,4.48
2016-10-28T04:12:26.761Z,4.48
2016-10-28T04:13:35.466Z,4.42
2016-10-28T04:14:44.163Z,4.42
2016-10-28T04:15:52.872Z,4.46
2016-10-28T04:17:01.604Z,4.53
2016-10-28T04:18:10.622Z,4.46
2016-10-28T04:19:19.329Z,4.42
2016-10-28T04:20:28.030Z,4.49
2016-10-28T04:21:36.730Z,4.32
2016-10-28T04:22:45.433Z,4.36
2016-10-28T04:23:54.132Z,4.25
2016-10-28T04:25:02.832Z,4.27
2016-10-28T04:26:11.534Z,4.25
2016-10-28T04:27:20.228Z,4.16
2016-10-28T04:28:28.920Z,4.28
2016-10-28T04:29:37.616Z,4.24
2016-10-28T04:30:46.312Z,4.34
2016-10-28T04:31:55.012Z,4.48
2016-10-28T04:33:03.758Z,4.49
2016-10-28T04:34:12.456Z,4.6
2016-10-28T04:35:21.185Z,4.7
2016-10-28T04:36:29.921Z,4.71
2016-10-28T04:37:38.656Z,4.83
2016-10-28T04:38:47.367Z,4.9
2016-10-28T04:39:56.063Z,4.95
2016-10-28T04:41:05.078Z,5
2016-10-28T04:42:13.777Z,5.04
2016-10-28T04:43:22.475Z,5.15
2016-10-28T04:44:31.176Z,5.23
2016-10-28T04:45:39.884Z,5.2
2016-10-28T04:46:48.587Z,5.49
2016-10-28T04:47:57.284Z,5.52
2016-10-28T04:49:05.990Z,5.49
2016-10-28T04:50:14.691Z,5.46
2016-10-28T04:51:23.393Z,5.43
2016-10-28T04:52:32.095Z,5.56
2016-10-28T04:53:40.795Z,5.61
2016-10-28T04:54:49.495Z,5.51
2016-10-28T04:55:58.196Z,5.4
2016-10-28T04:57:06.896Z,5.25
2016-10-28T04:58:15.599Z,5.2
2016-10-28T04:59:24.653Z,5.2
2016-10-28T05:00:33.376Z,5.07
2016-10-28T05:01:42.075Z,5.07
2016-10-28T05:02:50.808Z,5.15
2016-10-28T05:03:59.501Z,5.16
2016-10-28T05:05:08.195Z,5.2
2016-10-28T05:06:16.895Z,5.2
2016-10-28T05:07:25.594Z,5.22
2016-10-28T05:08:34.339Z,5.18
2016-10-28T05:09:43.040Z,5.25
2016-10-28T05:10:51.751Z,5.22
2016-10-28T05:12:00.443Z,5.1
2016-10-28T05:13:09.149Z,5.13
2016-10-28T05:14:17.878Z,5.13
2016-10-28T05:15:26.620Z,4.95
2016-10-28T05:16:35.320Z,4.75
2016-10-28T05:17:44.122Z,4.56
2016-10-28T05:18:52.821Z,4.52
2016-10-28T05:20:01.522Z,4.48
2016-10-28T05:21:10.222Z,4.43
2016-10-28T05:22:18.919Z,4.3
2016-10-28T05:23:27.631Z,4.2
2016-10-28T05:24:36.330Z,4.07
2016-10-28T05:25:45.029Z,3.99
2016-10-28T05:26:53.765Z,4.06
2016-10-28T05:28:02.817Z,4.03
2016-10-28T05:29:11.520Z,3.91
2016-10-28T05:30:20.216Z,3.91
2016-10-28T05:31:28.949Z,3.82
2016-10-28T05:32:37.646Z,3.81
2016-10-28T05:33:46.345Z,3.81
2016-10-28T05:34:55.359Z,3.71
2016-10-28T05:36:04.061Z,3.77
2016-10-28T05:37:12.804Z,3.64
2016-10-28T05:38:21.506Z,3.64
2016-10-28T05:39:30.205Z,3.84
2016-10-28T05:40:38.905Z,3.82
2016-10-28T05:41:47.606Z,3.77
2016-10-28T05:42:56.333Z,3.78
2016-10-28T05:44:05.079Z,3.76
2016-10-28T05:45:13.780Z,3.67
2016-10-28T05:46:22.477Z,3.56
2016-10-28T05:47:31.172Z,3.43
2016-10-28T05:48:39.870Z,3.33
2016-10-28T05:49:48.567Z,3.21
2016-10-28T05:50:57.265Z,3.13
2016-10-28T05:52:06.005Z,3.21
2016-10-28T05:53:14.709Z,3.36
2016-10-28T05:54:23.408Z,3.36
2016-10-28T05:55:32.107Z,3.3
2016-10-28T05:56:40.804Z,3.24
2016-10-28T05:57:49.502Z,3.29
2016-10-28T05:58:58.232Z,3.34
2016-10-28T06:00:07.244Z,3.45
2016-10-28T06:01:15.993Z,3.48
2016-10-28T06:02:24.692Z,3.63
2016-10-28T06:03:33.404Z,3.76
2016-10-28T06:04:42.107Z,3.76
2016-10-28T06:05:50.806Z,3.77
2016-10-28T06:06:59.512Z,3.91
2016-10-28T06:08:08.214Z,3.88
2016-10-28T06:09:16.910Z,4
2016-10-28T06:10:25.641Z,4.13
2016-10-28T06:11:34.339Z,4.22
2016-10-28T06:12:43.046Z,4.25
2016-10-28T06:13:51.744Z,4.28
2016-10-28T06:15:00.448Z,4.38
2016-10-28T06:16:09.176Z,4.34
2016-10-28T06:17:17.877Z,4.3
2016-10-28T06:18:26.582Z,4.16
2016-10-28T06:19:35.313Z,4.04
2016-10-28T06:20:44.011Z,3.94
2016-10-28T06:21:52.741Z,3.86
2016-10-28T06:23:01.440Z,3.68
2016-10-28T06:24:10.151Z,3.59
2016-10-28T06:25:18.851Z,3.5
2016-10-28T06:26:27.548Z,3.46
2016-10-28T06:27:36.246Z,3.33
2016-10-28T06:28:44.944Z,3.27
2016-10-28T06:29:53.644Z,3.24
2016-10-28T06:31:02.349Z,3.16
2016-10-28T06:32:11.044Z,3.19
2016-10-28T06:33:19.779Z,3.15
2016-10-28T06:34:28.479Z,3.08
2016-10-28T06:35:37.179Z,3.03
2016-10-28T06:36:45.880Z,2.98
2016-10-28T06:37:54.577Z,3.06
2016-10-28T06:39:03.278Z,2.98
2016-10-28T06:40:11.979Z,3.01
2016-10-28T06:41:20.677Z,3
2016-10-28T06:42:29.372Z,2.97
2016-10-28T06:43:38.067Z,3
2016-10-28T06:44:46.764Z,2.97
2016-10-28T06:45:55.464Z,2.95
2016-10-28T06:47:04.210Z,2.97
2016-10-28T06:48:12.906Z,2.91
2016-10-28T06:49:21.605Z,2.88
2016-10-28T06:50:30.295Z,2.95
2016-10-28T06:51:38.991Z,2.9
2016-10-28T06:52:47.691Z,2.91
2016-10-28T06:53:56.426Z,2.98
2016-10-28T06:55:05.166Z,2.93
2016-10-28T06:56:14.176Z,3.03
2016-10-28T06:57:23.192Z,3.13
2016-10-28T06:58:31.924Z,3.18
2016-10-28T06:59:40.631Z,3.22
2016-10-28T07:00:49.323Z,3.33
2016-10-28T07:01:58.019Z,3.45
2016-10-28T07:03:06.723Z,3.46
2016-10-28T07:04:15.422Z,3.58
2016-10-28T07:05:24.119Z,3.56
2016-10-28T07:06:32.817Z,3.58
2016-10-28T07:07:41.600Z,3.56
2016-10-28T07:08:50.298Z,3.66
2016-10-28T07:09:59.046Z,3.91
2016-10-28T07:11:07.741Z,4
2016-10-28T07:12:16.447Z,4.1
2016-10-28T07:13:25.139Z,4.32
2016-10-28T07:14:33.843Z,4.34
2016-10-28T07:15:43.796Z,4.46
2016-10-28T07:16:52.494Z,4.43
2016-10-28T07:18:01.194Z,4.45
2016-10-28T07:19:09.893Z,4.48
2016-10-28T07:20:18.621Z,4.56
2016-10-28T07:21:27.316Z,4.76
2016-10-28T07:22:36.148Z,4.78
2016-10-28T07:23:44.933Z,4.84
2016-10-28T07:24:53.632Z,4.94
2016-10-28T07:26:02.334Z,5.01
2016-10-28T07:27:11.026Z,5.07
2016-10-28T07:28:19.723Z,5.12
2016-10-28T07:29:28.450Z,5.16
2016-10-28T07:30:37.163Z,5.16
2016-10-28T07:31:45.869Z,5.12
2016-10-28T07:32:54.579Z,5.16
2016-10-28T07:34:03.284Z,5.22
2016-10-28T07:35:11.985Z,5.23
2016-10-28T07:36:20.701Z,5.22
2016-10-28T07:37:29.407Z,5.23
2016-10-28T07:38:38.100Z,5.22
2016-10-28T07:39:46.808Z,5.25
2016-10-28T07:40:55.512Z,5.28
2016-10-28T07:42:04.215Z,5.23
2016-10-28T07:43:12.926Z,5.25
2016-10-28T07:44:21.791Z,5.19
2016-10-28T07:45:30.530Z,5.25
2016-10-28T07:46:39.231Z,5.36
2016-10-28T07:47:47.939Z,5.4
2016-10-28T07:48:56.646Z,5.46
2016-10-28T07:50:05.382Z,5.59
2016-10-28T07:51:14.083Z,5.65
2016-10-28T07:52:22.783Z,5.72
2016-10-28T07:53:31.485Z,5.67
2016-10-28T07:54:40.184Z,5.61
2016-10-28T07:55:48.879Z,5.67
2016-10-28T07:56:57.584Z,5.74
2016-10-28T07:58:06.287Z,5.7
2016-10-28T07:59:14.990Z,5.72
2016-10-28T08:00:23.690Z,5.77
2016-10-28T08:01:32.396Z,5.7
2016-10-28T08:02:41.093Z,5.73
2016-10-28T08:03:49.802Z,5.74
2016-10-28T08:04:58.505Z,5.73
2016-10-28T08:06:07.208Z,5.84
2016-10-28T08:07:15.918Z,5.67
2016-10-28T08:08:24.625Z,5.69
2016-10-28T08:09:33.319Z,5.79
2016-10-28T08:10:42.022Z,5.7
2016-10-28T08:11:50.741Z,5.76
2016-10-28T08:12:59.443Z,5.84
2016-10-28T08:14:08.151Z,5.88
2016-10-28T08:15:16.864Z,5.83
2016-10-28T08:16:25.562Z,5.84
2016-10-28T08:17:34.259Z,5.9
2016-10-28T08:18:42.963Z,5.97
2016-10-28T08:19:51.662Z,5.97
2016-10-28T08:21:00.356Z,6.01
2016-10-28T08:22:09.119Z,6.06
2016-10-28T08:23:17.819Z,6.07
2016-10-28T08:24:26.518Z,6.07
2016-10-28T08:25:35.219Z,6.06
2016-10-28T08:26:43.919Z,6.12
2016-10-28T08:27:52.614Z,6.09
2016-10-28T08:29:01.318Z,6.15
2016-10-28T08:30:10.017Z,6.22
2016-10-28T08:31:18.802Z,6.32
2016-10-28T08:32:27.505Z,6.35
2016-10-28T08:33:36.250Z,6.25
2016-10-28T08:34:44.950Z,6.36
2016-10-28T08:35:53.658Z,6.32
2016-10-28T08:37:02.357Z,6.39
2016-10-28T08:38:11.064Z,6.43
2016-10-28T08:39:19.769Z,6.52
2016-10-28T08:40:28.471Z,6.57
2016-10-28T08:41:37.171Z,6.49
2016-10-28T08:42:45.903Z,6.59
2016-10-28T08:43:54.609Z,6.65
2016-10-28T08:45:03.321Z,6.6
2016-10-28T08:46:12.021Z,6.56
2016-10-28T08:47:20.720Z,6.59
2016-10-28T08:48:29.414Z,6.72
2016-10-28T08:49:38.120Z,6.82
2016-10-28T08:50:47.144Z,6.74
2016-10-28T08:51:55.874Z,6.77
2016-10-28T08:53:04.628Z,6.82
2016-10-28T08:54:13.329Z,6.8
2016-10-28T08:55:22.028Z,6.86
2016-10-28T08:56:30.733Z,6.93
2016-10-28T08:57:39.437Z,6.86
2016-10-28T08:58:48.147Z,6.85
2016-10-28T08:59:56.848Z,6.95
2016-10-28T09:01:05.556Z,7.01
2016-10-28T09:02:14.257Z,7.07
2016-10-28T09:03:22.953Z,7.05
2016-10-28T09:04:31.666Z,7.04
2016-10-28T09:05:40.406Z,7.18
2016-10-28T09:06:49.100Z,7.14
2016-10-28T09:07:57.799Z,7.19
2016-10-28T09:09:06.506Z,7.18
2016-10-28T09:10:15.208Z,7.15
2016-10-28T09:11:23.906Z,7.19
2016-10-28T09:12:32.613Z,7.13
2016-10-28T09:13:41.309Z,7.31
2016-10-28T09:14:50.019Z,7.23
2016-10-28T09:15:58.767Z,7.22
2016-10-28T09:17:07.466Z,7.36
2016-10-28T09:18:16.197Z,7.36
2016-10-28T09:19:24.899Z,7.37
2016-10-28T09:20:33.613Z,7.33
2016-10-28T09:21:42.309Z,7.33
2016-10-28T09:22:51.010Z,7.32
2016-10-28T09:23:59.708Z,7.37
2016-10-28T09:25:08.412Z,7.41
2016-10-28T09:26:17.117Z,7.37
2016-10-28T09:27:25.826Z,7.51
2016-10-28T09:28:34.536Z,7.48
2016-10-28T09:29:43.233Z,7.59
2016-10-28T09:30:51.929Z,7.55
2016-10-28T09:32:00.630Z,7.64
2016-10-28T09:33:09.328Z,7.67
2016-10-28T09:34:18.034Z,7.77
2016-10-28T09:35:26.731Z,7.78
2016-10-28T09:36:35.437Z,7.84
2016-10-28T09:37:44.150Z,7.8
2016-10-28T09:38:52.851Z,7.84
2016-10-28T09:40:01.554Z,7.78
2016-10-28T09:41:10.254Z,7.8
2016-10-28T09:42:18.958Z,7.83
2016-10-28T09:43:27.665Z,7.9
2016-10-28T09:44:36.409Z,7.77
2016-10-28T09:45:45.109Z,7.91
2016-10-28T09:46:53.814Z,7.91
2016-10-28T09:48:02.514Z,7.93
2016-10-28T09:49:11.219Z,7.93
2016-10-28T09:50:19.918Z,7.95
2016-10-28T09:51:28.621Z,7.9
2016-10-28T09:52:37.357Z,7.98
2016-10-28T09:53:46.067Z,8.01
2016-10-28T09:54:54.781Z,7.99
2016-10-28T09:56:03.484Z,8.01
2016-10-28T09:57:12.185Z,7.99
2016-10-28T09:58:20.887Z,8.03
2016-10-28T09:59:29.590Z,8.01
2016-10-28T10:00:38.336Z,7.91
2016-10-28T10:01:47.040Z,8.03
2016-10-28T10:02:55.746Z,8.08
2016-10-28T10:04:04.450Z,8.02
2016-10-28T10:05:13.148Z,8.11
2016-10-28T10:06:21.852Z,8.08
2016-10-28T10:07:30.552Z,8.03
2016-10-28T10:08:39.263Z,8.13
2016-10-28T10:09:48.011Z,8.09
2016-10-28T10:10:56.733Z,8.11
2016-10-28T10:12:05.439Z,8.14
2016-10-28T10:13:14.145Z,8.13
2016-10-28T10:14:22.843Z,8.13
2016-10-28T10:15:31.542Z,8.21
2016-10-28T10:16:40.243Z,8.23
2016-10-28T10:17:48.947Z,8.23
2016-10-28T10:18:57.652Z,8.18
2016-10-28T10:20:06.358Z,8.2
2016-10-28T10:21:15.057Z,8.18
2016-10-28T10:22:23.758Z,8.21
2016-10-28T10:23:32.458Z,8.28
2016-10-28T10:24:41.158Z,8.16
2016-10-28T10:25:49.859Z,8.2
2016-10-28T10:26:58.563Z,8.23
2016-10-28T10:28:07.275Z,8.23
2016-10-28T10:29:15.982Z,8.23
2016-10-28T10:30:24.687Z,8.26
2016-10-28T10:31:33.394Z,8.41
2016-10-28T10:32:42.105Z,8.74
2016-10-28T10:33:51.124Z,9.36
2016-10-28T10:34:59.863Z,10.33
2016-10-28T10:36:08.563Z,11.22
2016-10-28T10:37:17.259Z,11.95
2016-10-28T10:38:25.966Z,12.51
2016-10-28T10:39:34.680Z,12.9
2016-10-28T10:40:43.397Z,13.21
2016-10-28T10:41:52.097Z,13.27
2016-10-28T10:43:00.801Z,13.33
2016-10-28T10:44:09.500Z,13.37
2016-10-28T10:45:18.205Z,13.64
2016-10-28T10:46:26.957Z,13.61
2016-10-28T10:47:35.707Z,13.68
2016-10-28T10:48:44.410Z,13.83
2016-10-28T10:49:53.117Z,13.87
2016-10-28T10:51:01.834Z,13.95
2016-10-28T10:52:10.542Z,14.19
2016-10-28T10:53:19.252Z,14.41
2016-10-28T10:54:27.960Z,14.43
2016-10-28T10:55:36.666Z,14.31
2016-10-28T10:56:45.371Z,14.4
2016-10-28T10:57:54.078Z,14.67
2016-10-28T10:59:02.799Z,15.1
2016-10-28T11:00:11.514Z,15.12
2016-10-28T11:01:20.216Z,14.92
2016-10-28T11:02:28.921Z,15.18
2016-10-28T11:03:37.629Z,15.51
2016-10-28T11:04:46.337Z,15.29
2016-10-28T11:05:55.042Z,15.15
2016-10-28T11:07:03.752Z,15.36
2016-10-28T11:08:12.462Z,15.47
2016-10-28T11:09:21.170Z,15.7
2016-10-28T11:10:29.932Z,15.76
2016-10-28T11:11:38.648Z,16.08
2016-10-28T11:12:47.388Z,16.13
2016-10-28T11:13:56.408Z,16.4
2016-10-28T11:15:05.117Z,16.43
2016-10-28T11:16:13.824Z,16.72
2016-10-28T11:17:22.968Z,17.07
2016-10-28T11:18:31.716Z,17.35
2016-10-28T11:19:40.427Z,17.23
2016-10-28T11:20:49.135Z,16.99
2016-10-28T11:21:57.844Z,17.07
2016-10-28T11:23:06.553Z,17.34
2016-10-28T11:24:15.296Z,17.02
2016-10-28T11:25:24.006Z,16.16
2016-10-28T11:26:32.753Z,16.46
2016-10-28T11:27:41.474Z,16.37
2016-10-28T11:28:50.181Z,15.87
2016-10-28T11:29:58.891Z,15.94
2016-10-28T11:31:07.599Z,16.02
2016-10-28T11:32:16.352Z,16.46
2016-10-28T11:33:25.061Z,17.05
2016-10-28T11:34:33.774Z,16.41
2016-10-28T11:35:42.492Z,16.06
2016-10-28T11:36:51.204Z,16.76
2016-10-28T11:37:59.909Z,17.38
2016-10-28T11:39:08.624Z,17.52
2016-10-28T11:40:17.336Z,17.05
2016-10-28T11:41:26.044Z,16.64
2016-10-28T11:42:34.793Z,16.69
2016-10-28T11:43:43.499Z,16.73
2016-10-28T11:44:52.212Z,17.09
2016-10-28T11:46:00.951Z,17.37
2016-10-28T11:47:09.763Z,17.6
2016-10-28T11:48:18.505Z,17.54
2016-10-28T11:49:27.228Z,17.75
2016-10-28T11:50:35.937Z,17.97
2016-10-28T11:51:44.644Z,18.15
2016-10-28T11:52:53.359Z,18.05
2016-10-28T11:54:02.076Z,17.73
2016-10-28T11:55:10.827Z,18.09
2016-10-28T11:56:19.539Z,18.31
2016-10-28T11:57:28.257Z,18.41
2016-10-28T11:58:36.974Z,18.21
2016-10-28T11:59:45.686Z,17.88
2016-10-28T12:00:54.393Z,17.72
2016-10-28T12:02:03.109Z,18.3
2016-10-28T12:03:12.254Z,18
2016-10-28T12:04:21.021Z,17.84
2016-10-28T12:05:30.039Z,17.82
2016-10-28T12:06:38.753Z,18.15
2016-10-28T12:07:47.471Z,17.76
2016-10-28T12:08:56.224Z,18.11
2016-10-28T12:10:04.934Z,18.58
2016-10-28T12:11:13.651Z,18.53
2016-10-28T12:12:22.677Z,18.64
2016-10-28T12:13:31.391Z,18.3
2016-10-28T12:14:40.116Z,18.63
2016-10-28T12:15:49.149Z,19.34
2016-10-28T12:16:57.860Z,19.74
2016-10-28T12:18:06.607Z,19.57
2016-10-28T12:19:15.323Z,19.64
2016-10-28T12:20:24.036Z,19.66
2016-10-28T12:21:32.749Z,18.89
2016-10-28T12:22:41.463Z,18.92
2016-10-28T12:23:50.199Z,19.09
2016-10-28T12:24:58.913Z,19.22
2016-10-28T12:26:07.622Z,19.12
2016-10-28T12:27:16.384Z,19.2
2016-10-28T12:28:25.094Z,18.79
2016-10-28T12:29:33.800Z,18.85
2016-10-28T12:30:42.512Z,19.35
2016-10-28T12:31:51.230Z,19.2
2016-10-28T12:32:59.943Z,19.7
2016-10-28T12:34:08.660Z,18.98
2016-10-28T12:35:17.418Z,19.24
2016-10-28T12:36:26.192Z,19.27
2016-10-28T12:37:35.224Z,19.39
2016-10-28T12:38:43.945Z,19.41
2016-10-28T12:39:52.658Z,19.22
2016-10-28T12:41:01.409Z,18.58
2016-10-28T12:42:10.128Z,18.45
2016-10-28T12:43:19.151Z,17.71
2016-10-28T12:44:27.865Z,16.99
2016-10-28T12:45:36.611Z,16.28
2016-10-28T12:46:45.325Z,15.63
2016-10-28T12:47:54.041Z,15.33
2016-10-28T12:49:02.760Z,14.82
2016-10-28T12:50:11.504Z,14.41
2016-10-28T12:51:20.221Z,13.87
2016-10-28T12:52:28.962Z,13.47
2016-10-28T12:53:37.672Z,13.09
2016-10-28T12:54:46.393Z,12.95
2016-10-28T12:55:55.414Z,12.83
2016-10-28T12:57:04.127Z,12.68
2016-10-28T12:58:12.924Z,12.94
2016-10-28T12:59:21.672Z,13.02
2016-10-28T13:00:30.382Z,13.26
2016-10-28T13:01:39.122Z,13.45
2016-10-28T13:02:47.869Z,13.2
2016-10-28T13:03:56.574Z,12.39
2016-10-28T13:05:05.282Z,11.86
2016-10-28T13:06:14.308Z,11.48
2016-10-28T13:07:23.024Z,11.05
2016-10-28T13:08:31.788Z,10.89
2016-10-28T13:09:40.499Z,10.71
2016-10-28T13:10:49.205Z,10.68
2016-10-28T13:11:57.946Z,10.58
2016-10-28T13:13:07.022Z,10.55
2016-10-28T13:14:15.729Z,10.45
2016-10-28T13:15:24.437Z,10.64
2016-10-28T13:16:33.149Z,10.71
2016-10-28T13:17:41.863Z,10.98
2016-10-28T13:18:50.885Z,11.01
2016-10-28T13:19:59.595Z,11.59
2016-10-28T13:21:08.301Z,11.8
2016-10-28T13:22:17.006Z,11.6
2016-10-28T13:23:25.711Z,11.1
2016-10-28T13:24:34.425Z,10.82
2016-10-28T13:25:43.131Z,10.58
2016-10-28T13:26:51.837Z,10.23
2016-10-28T13:28:00.946Z,10.05
2016-10-28T13:29:09.692Z,9.94
2016-10-28T13:30:18.712Z,9.94
2016-10-28T13:31:27.425Z,9.94
2016-10-28T13:32:36.131Z,9.7
2016-10-28T13:33:44.837Z,10.07
2016-10-28T13:34:53.540Z,11.04
2016-10-28T13:36:02.286Z,11.78
2016-10-28T13:37:10.988Z,11.91
2016-10-28T13:38:19.694Z,12.14
2016-10-28T13:39:28.401Z,12.37
2016-10-28T13:40:37.127Z,12
2016-10-28T13:41:45.838Z,11.01
2016-10-28T13:42:54.863Z,10.36
2016-10-28T13:44:03.573Z,10.24
2016-10-28T13:45:12.282Z,10.17
2016-10-28T13:46:20.989Z,10.12
2016-10-28T13:47:29.693Z,10.1
2016-10-28T13:48:38.405Z,10.18
2016-10-28T13:49:47.108Z,9.85
2016-10-28T13:50:55.814Z,9.56
2016-10-28T13:52:04.561Z,9.58
2016-10-28T13:53:13.263Z,9.29
2016-10-28T13:54:21.967Z,9
2016-10-28T13:55:30.673Z,8.81
2016-10-28T13:56:39.382Z,8.68
2016-10-28T13:57:48.088Z,8.57
2016-10-28T13:58:56.843Z,8.56
2016-10-28T14:00:05.863Z,8.6
2016-10-28T14:01:14.569Z,8.5
2016-10-28T14:02:23.274Z,8.5
2016-10-28T14:03:31.996Z,8.36
2016-10-28T14:04:40.703Z,8.41
2016-10-28T14:05:49.412Z,8.36
2016-10-28T14:06:58.117Z,8.34
2016-10-28T14:08:06.860Z,8.32
2016-10-28T14:09:15.570Z,8.34
2016-10-28T14:10:24.280Z,8.31
2016-10-28T14:11:32.986Z,8.18
2016-10-28T14:12:41.686Z,8.21
2016-10-28T14:13:50.389Z,8.24
2016-10-28T14:14:59.094Z,8.2
2016-10-28T14:16:07.791Z,8.34
2016-10-28T14:17:16.497Z,8.23
2016-10-28T14:18:25.202Z,8.24
2016-10-28T14:19:33.918Z,8.03
2016-10-28T14:20:42.660Z,8.13
2016-10-28T14:21:51.362Z,8.01
2016-10-28T14:23:00.066Z,7.99
2016-10-28T14:24:08.776Z,7.99
2016-10-28T14:25:17.513Z,8.03
2016-10-28T14:26:26.215Z,7.93
2016-10-28T14:27:34.922Z,7.88
2016-10-28T14:28:43.624Z,7.95
2016-10-28T14:29:52.325Z,7.96
2016-10-28T14:31:01.025Z,7.87
2016-10-28T14:32:09.727Z,7.88
2016-10-28T14:33:18.489Z,7.8
2016-10-28T14:34:27.194Z,7.8
2016-10-28T14:35:35.898Z,7.72
2016-10-28T14:36:44.606Z,7.7
2016-10-28T14:37:53.316Z,7.56
2016-10-28T14:39:02.057Z,7.58
2016-10-28T14:40:10.811Z,7.69
2016-10-28T14:41:19.545Z,7.67
2016-10-28T14:42:28.254Z,7.69
2016-10-28T14:43:36.959Z,7.69
2016-10-28T14:44:45.660Z,7.58
2016-10-28T14:45:54.363Z,7.47
2016-10-28T14:47:03.066Z,7.55
2016-10-28T14:48:11.782Z,7.67
2016-10-28T14:49:20.486Z,7.7
2016-10-28T14:50:29.190Z,7.58
2016-10-28T14:51:37.888Z,7.5
2016-10-28T14:52:46.594Z,7.4
2016-10-28T14:53:55.330Z,7.36
2016-10-28T14:55:04.036Z,7.29
2016-10-28T14:56:13.161Z,7.22
2016-10-28T14:57:21.861Z,7.14
2016-10-28T14:58:30.564Z,7.08
2016-10-28T14:59:39.266Z,7.01
2016-10-28T15:00:47.972Z,7.01
2016-10-28T15:01:56.675Z,6.9
2016-10-28T15:03:05.384Z,6.93
2016-10-28T15:04:14.117Z,6.87
2016-10-28T15:05:22.821Z,6.97
2016-10-28T15:06:31.533Z,6.78
2016-10-28T15:07:40.234Z,6.74
2016-10-28T15:08:48.933Z,6.78
2016-10-28T15:09:57.638Z,6.8
2016-10-28T15:11:06.344Z,6.8
2016-10-28T15:12:15.050Z,6.8